createdAt,value
2019-03-01T00:02:09.927Z,101103.52
2019-03-01T00:05:00.358Z,101104.94
2019-03-01T00:07:55.623Z,101104.00
2019-03-01T00:10:37.836Z,101100.65
2019-03-01T00:13:41.667Z,101105.08
2019-03-01T00:16:43.164Z,101105.59
2019-03-01T00:19:45.722Z,101108.95
2019-03-01T00:22:42.931Z,101114.39
2019-03-01T00:25:45.727Z,101110.41
2019-03-01T00:28:44.232Z,101118.25
2019-03-01T00:32:15.827Z,101121.03
2019-03-01T00:35:25.841Z,101116.53
2019-03-01T00:38:07.265Z,101124.73
2019-03-01T00:40:51.438Z,101116.63
2019-03-01T00:44:05.034Z,101116.01
2019-03-01T00:46:34.546Z,101113.62
2019-03-01T00:49:03.850Z,101108.12
2019-03-01T00:51:33.165Z,101103.93
2019-03-01T00:54:02.479Z,101100.95
2019-03-01T00:56:31.840Z,101098.78
2019-03-01T00:59:01.347Z,101100.02
2019-03-01T01:01:30.738Z,101096.53
2019-03-01T01:04:00.083Z,101096.17
2019-03-01T01:06:29.346Z,101094.09
2019-03-01T01:08:58.727Z,101091.28
2019-03-01T01:11:28.095Z,101094.87
2019-03-01T01:13:57.393Z,101098.84
2019-03-01T01:16:26.846Z,101098.08
2019-03-01T01:18:56.131Z,101092.49
2019-03-01T01:21:25.441Z,101083.28
2019-03-01T01:23:54.878Z,101088.36
2019-03-01T01:26:24.287Z,101082.14
2019-03-01T01:28:53.624Z,101085.21
2019-03-01T01:31:23.014Z,101081.48
2019-03-01T01:33:52.321Z,101081.54
2019-03-01T01:36:21.676Z,101078.02
2019-03-01T01:38:51.089Z,101074.80
2019-03-01T01:41:20.364Z,101080.13
2019-03-01T01:43:49.654Z,101068.41
2019-03-01T01:46:19.035Z,101067.89
2019-03-01T01:48:48.290Z,101069.09
2019-03-01T01:51:17.562Z,101066.08
2019-03-01T01:53:46.893Z,101062.67
2019-03-01T01:56:16.257Z,101068.72
2019-03-01T01:58:45.571Z,101072.62
2019-03-01T02:01:15.062Z,101076.55
2019-03-01T02:03:44.368Z,101079.25
2019-03-01T02:06:13.647Z,101081.80
2019-03-01T02:08:43.199Z,101079.10
2019-03-01T02:11:13.075Z,101071.67
2019-03-01T02:13:42.392Z,101074.42
2019-03-01T02:16:11.880Z,101080.42
2019-03-01T02:18:41.180Z,101082.99
2019-03-01T02:21:10.468Z,101088.95
2019-03-01T02:23:40.229Z,101092.18
2019-03-01T02:26:09.570Z,101087.41
2019-03-01T02:28:39.988Z,101091.46
2019-03-01T02:31:09.438Z,101094.05
2019-03-01T02:33:38.735Z,101090.38
2019-03-01T02:36:08.079Z,101092.89
2019-03-01T02:38:37.563Z,101089.42
2019-03-01T02:41:06.927Z,101088.50
2019-03-01T02:43:36.281Z,101087.03
2019-03-01T02:46:05.915Z,101085.17
2019-03-01T02:48:35.243Z,101086.52
2019-03-01T02:51:04.537Z,101078.80
2019-03-01T02:53:33.836Z,101079.84
2019-03-01T02:56:03.170Z,101085.23
2019-03-01T02:58:32.441Z,101092.72
2019-03-01T03:01:01.886Z,101096.20
2019-03-01T03:03:31.273Z,101101.19
2019-03-01T03:06:18.025Z,101096.54
2019-03-01T03:08:47.326Z,101098.80
2019-03-01T03:11:16.655Z,101110.27
2019-03-01T03:13:46.072Z,101112.14
2019-03-01T03:16:15.410Z,101111.30
2019-03-01T03:18:44.704Z,101114.17
2019-03-01T03:21:14.103Z,101121.94
2019-03-01T03:23:43.454Z,101122.60
2019-03-01T03:26:12.797Z,101113.17
2019-03-01T03:28:42.172Z,101113.23
2019-03-01T03:31:11.457Z,101106.52
2019-03-01T03:33:40.743Z,101109.79
2019-03-01T03:36:10.440Z,101106.09
2019-03-01T03:38:39.724Z,101105.12
2019-03-01T03:41:09.085Z,101101.50
2019-03-01T03:43:38.701Z,101101.76
2019-03-01T03:46:07.950Z,101096.28
2019-03-01T03:48:37.257Z,101096.84
2019-03-01T03:51:06.661Z,101097.59
2019-03-01T03:53:35.939Z,101099.19
2019-03-01T03:56:05.652Z,101099.70
2019-03-01T03:58:35.213Z,101093.02
2019-03-01T04:01:04.607Z,101089.66
2019-03-01T04:03:33.958Z,101094.11
2019-03-01T04:06:03.428Z,101090.80
2019-03-01T04:08:32.695Z,101092.91
2019-03-01T04:11:02.002Z,101101.87
2019-03-01T04:13:31.517Z,101098.70
2019-03-01T04:16:00.841Z,101105.61
2019-03-01T04:18:30.108Z,101104.14
2019-03-01T04:20:59.722Z,101109.69
2019-03-01T04:23:29.069Z,101111.55
2019-03-01T04:25:58.319Z,101111.48
2019-03-01T04:28:27.670Z,101115.64
2019-03-01T04:30:56.977Z,101116.11
2019-03-01T04:33:26.258Z,101113.78
2019-03-01T04:35:55.621Z,101118.21
2019-03-01T04:38:24.902Z,101115.05
2019-03-01T04:40:54.261Z,101113.23
2019-03-01T04:43:23.565Z,101111.22
2019-03-01T04:45:52.897Z,101113.79
2019-03-01T04:48:22.203Z,101117.16
2019-03-01T04:50:51.559Z,101116.48
2019-03-01T04:53:20.866Z,101118.34
2019-03-01T04:55:50.206Z,101125.91
2019-03-01T04:58:19.806Z,101120.69
2019-03-01T05:00:49.142Z,101119.17
2019-03-01T05:03:18.448Z,101124.32
2019-03-01T05:05:47.841Z,101125.27
2019-03-01T05:08:17.122Z,101122.77
2019-03-01T05:10:46.412Z,101122.05
2019-03-01T05:13:15.834Z,101116.67
2019-03-01T05:15:45.147Z,101124.27
2019-03-01T05:18:14.455Z,101124.19
2019-03-01T05:20:44.020Z,101122.72
2019-03-01T05:23:13.296Z,101124.14
2019-03-01T05:25:42.625Z,101118.91
2019-03-01T05:28:11.931Z,101122.02
2019-03-01T05:30:41.272Z,101123.48
2019-03-01T05:33:10.598Z,101130.05
2019-03-01T05:35:39.996Z,101132.55
2019-03-01T05:38:09.307Z,101139.02
2019-03-01T05:40:38.669Z,101142.12
2019-03-01T05:43:08.065Z,101142.01
2019-03-01T05:45:37.395Z,101145.09
2019-03-01T05:48:06.745Z,101139.75
2019-03-01T05:50:36.212Z,101150.73
2019-03-01T05:53:05.569Z,101146.41
2019-03-01T05:55:34.892Z,101157.34
2019-03-01T05:58:28.139Z,101152.95
2019-03-01T06:00:59.633Z,101158.34
2019-03-01T06:03:52.979Z,101157.10
2019-03-01T06:06:30.749Z,101157.02
2019-03-01T06:09:20.376Z,101162.87
2019-03-01T06:12:29.496Z,101161.30
2019-03-01T06:15:30.642Z,101172.22
2019-03-01T06:18:40.874Z,101181.60
2019-03-01T06:21:49.643Z,101176.13
2019-03-01T06:24:57.204Z,101175.17
2019-03-01T06:27:49.107Z,101173.25
2019-03-01T06:30:52.119Z,101166.86
2019-03-01T06:33:57.626Z,101168.47
2019-03-01T06:37:03.524Z,101164.37
2019-03-01T06:40:27.225Z,101161.17
2019-03-01T06:43:55.245Z,101163.53
2019-03-01T06:46:47.653Z,101158.80
2019-03-01T06:49:22.030Z,101156.80
2019-03-01T06:51:51.483Z,101160.05
2019-03-01T06:54:20.811Z,101151.65
2019-03-01T06:56:50.108Z,101159.67
2019-03-01T06:59:19.589Z,101154.16
2019-03-01T07:01:49.444Z,101154.70
2019-03-01T07:04:19.270Z,101159.02
2019-03-01T07:06:48.873Z,101169.70
2019-03-01T07:09:18.167Z,101174.16
2019-03-01T07:11:47.429Z,101175.02
2019-03-01T07:14:16.951Z,101182.45
2019-03-01T07:16:46.239Z,101194.89
2019-03-01T07:19:15.559Z,101193.44
2019-03-01T07:21:45.029Z,101191.00
2019-03-01T07:24:14.395Z,101190.08
2019-03-01T07:26:43.925Z,101195.03
2019-03-01T07:29:13.552Z,101194.96
2019-03-01T07:31:42.883Z,101195.86
2019-03-01T07:34:12.236Z,101186.00
2019-03-01T07:36:41.825Z,101180.64
2019-03-01T07:39:11.312Z,101180.59
2019-03-01T07:41:40.628Z,101181.90
2019-03-01T07:44:10.285Z,101186.98
2019-03-01T07:46:39.558Z,101186.93
2019-03-01T07:49:08.833Z,101191.61
2019-03-01T07:51:38.310Z,101187.08
2019-03-01T07:54:07.570Z,101192.84
2019-03-01T07:56:39.552Z,101202.58
2019-03-01T07:59:08.229Z,101207.03
2019-03-01T08:01:37.541Z,101204.30
2019-03-01T08:04:06.860Z,101209.64
2019-03-01T08:06:36.370Z,101213.58
2019-03-01T08:09:12.816Z,101217.95
2019-03-01T08:11:42.344Z,101219.02
2019-03-01T08:14:11.658Z,101234.15
2019-03-01T08:16:40.972Z,101226.49
2019-03-01T08:19:10.410Z,101224.96
2019-03-01T08:21:42.798Z,101219.06
2019-03-01T08:24:11.847Z,101221.52
2019-03-01T08:26:41.428Z,101224.22
2019-03-01T08:29:10.727Z,101230.51
2019-03-01T08:31:40.022Z,101230.08
2019-03-01T08:34:09.589Z,101226.97
2019-03-01T08:36:42.557Z,101235.03
2019-03-01T08:39:09.961Z,101245.59
2019-03-01T08:41:39.303Z,101247.30
2019-03-01T08:44:08.635Z,101250.89
2019-03-01T08:46:38.143Z,101256.35
2019-03-01T08:49:10.544Z,101254.53
2019-03-01T08:51:38.469Z,101262.48
2019-03-01T08:54:07.851Z,101263.75
2019-03-01T08:56:37.147Z,101274.13
2019-03-01T08:59:06.441Z,101273.42
2019-03-01T09:01:36.001Z,101281.68
2019-03-01T09:04:08.592Z,101282.55
2019-03-01T09:06:38.057Z,101284.52
2019-03-01T09:09:08.771Z,101278.41
2019-03-01T09:11:38.139Z,101288.50
2019-03-01T09:14:07.629Z,101286.56
2019-03-01T09:16:36.974Z,101277.69
2019-03-01T09:19:06.269Z,101290.02
2019-03-01T09:21:35.610Z,101292.36
2019-03-01T09:24:05.060Z,101298.08
2019-03-01T09:26:35.665Z,101294.66
2019-03-01T09:29:05.378Z,101292.75
2019-03-01T09:31:34.657Z,101302.13
2019-03-01T09:34:06.068Z,101312.53
2019-03-01T09:36:55.742Z,101314.64
2019-03-01T09:39:25.129Z,101316.48
2019-03-01T09:42:03.013Z,101313.09
2019-03-01T09:44:25.422Z,101310.83
2019-03-01T09:46:54.716Z,101305.74
2019-03-01T09:49:24.383Z,101313.02
2019-03-01T09:51:54.495Z,101318.27
2019-03-01T09:54:23.809Z,101320.54
2019-03-01T09:56:53.123Z,101331.95
2019-03-01T09:59:22.560Z,101321.32
2019-03-01T10:01:51.898Z,101326.73
2019-03-01T10:04:21.244Z,101324.86
2019-03-01T10:06:50.555Z,101327.39
2019-03-01T10:09:19.913Z,101335.37
2019-03-01T10:11:49.243Z,101330.92
2019-03-01T10:14:19.738Z,101332.61
2019-03-01T10:16:53.009Z,101337.44
2019-03-01T10:19:22.564Z,101335.70
2019-03-01T10:21:52.056Z,101340.23
2019-03-01T10:24:21.359Z,101334.98
2019-03-01T10:26:50.766Z,101337.50
2019-03-01T10:29:20.056Z,101333.97
2019-03-01T10:31:49.377Z,101331.44
2019-03-01T10:34:18.995Z,101340.48
2019-03-01T10:36:48.271Z,101336.31
2019-03-01T10:39:17.559Z,101332.54
2019-03-01T10:41:48.664Z,101334.44
2019-03-01T10:44:18.082Z,101336.44
2019-03-01T10:46:47.375Z,101341.89
2019-03-01T10:49:16.678Z,101346.59
2019-03-01T10:51:46.059Z,101338.77
2019-03-01T10:54:15.355Z,101351.37
2019-03-01T10:56:44.838Z,101341.64
2019-03-01T10:59:14.175Z,101356.17
2019-03-01T11:01:43.490Z,101353.66
2019-03-01T11:04:12.895Z,101358.83
2019-03-01T11:06:42.165Z,101354.38
2019-03-01T11:09:11.845Z,101356.75
2019-03-01T11:11:41.385Z,101356.86
2019-03-01T11:14:10.653Z,101353.88
2019-03-01T11:16:39.968Z,101354.76
2019-03-01T11:19:09.488Z,101369.64
2019-03-01T11:21:38.852Z,101374.28
2019-03-01T11:24:08.140Z,101377.73
2019-03-01T11:26:37.490Z,101379.75
2019-03-01T11:29:06.839Z,101382.14
2019-03-01T11:31:36.124Z,101382.46
2019-03-01T11:34:05.722Z,101378.94
2019-03-01T11:36:35.023Z,101383.30
2019-03-01T11:39:05.326Z,101384.48
2019-03-01T11:41:34.703Z,101393.88
2019-03-01T11:44:04.312Z,101389.16
2019-03-01T11:46:33.675Z,101394.52
2019-03-01T11:49:03.060Z,101407.22
2019-03-01T11:51:32.323Z,101401.64
2019-03-01T11:54:01.650Z,101409.30
2019-03-01T11:56:31.175Z,101410.22
2019-03-01T11:59:00.460Z,101415.59
2019-03-01T12:01:29.754Z,101416.48
2019-03-01T12:03:59.084Z,101414.03
2019-03-01T12:06:28.369Z,101416.58
2019-03-01T12:08:57.705Z,101414.23
2019-03-01T12:11:27.015Z,101409.60
2019-03-01T12:13:56.350Z,101420.05
2019-03-01T12:16:25.678Z,101423.64
2019-03-01T12:18:55.234Z,101415.53
2019-03-01T12:21:24.516Z,101424.17
2019-03-01T12:23:53.903Z,101426.16
2019-03-01T12:26:23.214Z,101429.02
2019-03-01T12:28:52.477Z,101432.75
2019-03-01T12:31:21.781Z,101429.73
2019-03-01T12:33:51.113Z,101436.38
2019-03-01T12:36:20.415Z,101438.16
2019-03-01T12:38:49.935Z,101436.64
2019-03-01T12:41:19.221Z,101433.00
2019-03-01T12:43:48.594Z,101437.09
2019-03-01T12:46:17.897Z,101435.81
2019-03-01T12:48:47.442Z,101434.55
2019-03-01T12:51:16.729Z,101439.64
2019-03-01T12:53:46.039Z,101433.64
2019-03-01T12:56:15.625Z,101442.80
2019-03-01T12:58:44.942Z,101448.91
2019-03-01T13:01:14.232Z,101444.84
2019-03-01T13:03:44.603Z,101456.00
2019-03-01T13:06:13.952Z,101453.79
2019-03-01T13:08:43.235Z,101449.19
2019-03-01T13:11:16.141Z,101453.50
2019-03-01T13:13:43.753Z,101450.84
2019-03-01T13:16:13.207Z,101456.92
2019-03-01T13:18:42.497Z,101456.92
2019-03-01T13:21:12.988Z,101454.17
2019-03-01T13:23:45.317Z,101465.04
2019-03-01T13:26:14.290Z,101462.14
2019-03-01T13:28:43.862Z,101464.50
2019-03-01T13:31:14.776Z,101465.17
2019-03-01T13:33:44.056Z,101468.49
2019-03-01T13:36:13.552Z,101473.89
2019-03-01T13:38:43.101Z,101477.67
2019-03-01T13:41:12.379Z,101484.36
2019-03-01T13:43:41.649Z,101489.89
2019-03-01T13:46:11.068Z,101487.55
2019-03-01T13:48:40.386Z,101498.22
2019-03-01T13:51:09.701Z,101499.34
2019-03-01T13:53:48.511Z,101503.92
2019-03-01T13:56:10.789Z,101504.04
2019-03-01T13:58:40.078Z,101515.88
2019-03-01T14:01:09.486Z,101520.64
2019-03-01T14:03:38.769Z,101513.89
2019-03-01T14:06:08.075Z,101520.17
2019-03-01T14:08:37.602Z,101522.01
2019-03-01T14:11:06.871Z,101522.16
2019-03-01T14:13:36.191Z,101519.73
2019-03-01T14:16:05.501Z,101521.83
2019-03-01T14:18:36.774Z,101522.75
2019-03-01T14:21:06.280Z,101525.23
2019-03-01T14:23:35.613Z,101520.85
2019-03-01T14:26:04.952Z,101521.30
2019-03-01T14:28:34.311Z,101518.75
2019-03-01T14:31:03.970Z,101521.77
2019-03-01T14:33:34.596Z,101518.33
2019-03-01T14:36:04.007Z,101521.37
2019-03-01T14:38:33.341Z,101526.45
2019-03-01T14:41:02.621Z,101529.47
2019-03-01T14:43:31.891Z,101530.78
2019-03-01T14:46:01.235Z,101518.52
2019-03-01T14:48:30.519Z,101514.19
2019-03-01T14:50:59.884Z,101515.45
2019-03-01T14:53:31.143Z,101515.00
2019-03-01T14:56:05.599Z,101515.00
2019-03-01T14:58:38.882Z,101522.02
2019-03-01T15:01:17.067Z,101523.27
2019-03-01T15:03:49.784Z,101526.33
2019-03-01T15:06:19.100Z,101523.95
2019-03-01T15:08:48.626Z,101524.02
2019-03-01T15:11:20.022Z,101526.89
2019-03-01T15:13:50.615Z,101532.47
2019-03-01T15:16:19.908Z,101530.92
2019-03-01T15:18:49.333Z,101533.20
2019-03-01T15:21:18.620Z,101531.69
2019-03-01T15:23:47.918Z,101533.78
2019-03-01T15:26:17.214Z,101536.38
2019-03-01T15:28:53.826Z,101541.31
2019-03-01T15:31:19.501Z,101539.35
2019-03-01T15:33:49.099Z,101544.45
2019-03-01T15:36:19.139Z,101541.73
2019-03-01T15:38:48.536Z,101541.56
2019-03-01T15:41:18.059Z,101545.43
2019-03-01T15:43:47.453Z,101549.05
2019-03-01T15:46:17.995Z,101558.00
2019-03-01T15:48:47.683Z,101552.72
2019-03-01T15:51:16.985Z,101555.98
2019-03-01T15:53:46.233Z,101551.42
2019-03-01T15:56:15.749Z,101548.70
2019-03-01T15:58:46.611Z,101553.42
2019-03-01T16:01:16.120Z,101552.78
2019-03-01T16:03:45.479Z,101552.78
2019-03-01T16:06:19.215Z,101554.59
2019-03-01T16:08:48.000Z,101562.97
2019-03-01T16:11:16.956Z,101564.11
2019-03-01T16:13:49.030Z,101568.07
2019-03-01T16:16:17.321Z,101574.97
2019-03-01T16:18:46.572Z,101572.81
2019-03-01T16:21:15.954Z,101570.28
2019-03-01T16:23:45.479Z,101572.50
2019-03-01T16:26:14.782Z,101573.31
2019-03-01T16:28:44.071Z,101577.50
2019-03-01T16:31:13.364Z,101577.70
2019-03-01T16:33:42.697Z,101580.74
2019-03-01T16:36:27.722Z,101581.47
2019-03-01T16:38:56.964Z,101589.30
2019-03-01T16:41:26.352Z,101587.92
2019-03-01T16:43:55.976Z,101592.92
2019-03-01T16:46:25.289Z,101597.43
2019-03-01T16:48:54.638Z,101599.52
2019-03-01T16:51:24.076Z,101592.10
2019-03-01T16:53:53.338Z,101601.37
2019-03-01T16:56:22.630Z,101607.30
2019-03-01T16:58:51.970Z,101607.14
2019-03-01T17:01:21.264Z,101613.97
2019-03-01T17:03:52.634Z,101614.33
2019-03-01T17:06:21.749Z,101617.21
2019-03-01T17:08:53.106Z,101620.53
2019-03-01T17:11:22.120Z,101618.56
2019-03-01T17:13:51.692Z,101629.58
2019-03-01T17:16:23.609Z,101630.87
2019-03-01T17:18:52.318Z,101632.52
2019-03-01T17:21:21.725Z,101636.39
2019-03-01T17:23:51.118Z,101635.11
2019-03-01T17:26:20.393Z,101641.34
2019-03-01T17:28:49.953Z,101640.14
2019-03-01T17:31:19.261Z,101649.56
2019-03-01T17:33:48.834Z,101650.22
2019-03-01T17:36:19.216Z,101654.05
2019-03-01T17:38:48.536Z,101656.69
2019-03-01T17:41:17.952Z,101663.83
2019-03-01T17:43:47.205Z,101663.13
2019-03-01T17:46:16.555Z,101668.82
2019-03-01T17:48:46.738Z,101668.43
2019-03-01T17:51:18.186Z,101667.83
2019-03-01T17:53:47.775Z,101664.66
2019-03-01T17:56:18.738Z,101665.25
2019-03-01T17:58:48.172Z,101664.79
2019-03-01T18:01:17.548Z,101663.32
2019-03-01T18:03:46.850Z,101667.23
2019-03-01T18:06:16.871Z,101673.02
2019-03-01T18:08:47.180Z,101672.45
2019-03-01T18:11:16.486Z,101670.33
2019-03-01T18:13:45.855Z,101675.64
2019-03-01T18:16:15.353Z,101670.61
2019-03-01T18:18:48.763Z,101665.56
2019-03-01T18:21:15.743Z,101663.06
2019-03-01T18:23:45.153Z,101668.67
2019-03-01T18:26:14.465Z,101668.02
2019-03-01T18:28:43.818Z,101668.90
2019-03-01T18:31:13.156Z,101668.31
2019-03-01T18:33:42.763Z,101658.55
2019-03-01T18:36:12.064Z,101662.66
2019-03-01T18:38:41.453Z,101661.19
2019-03-01T18:41:11.171Z,101661.19
2019-03-01T18:43:40.497Z,101666.34
2019-03-01T18:46:09.913Z,101669.78
2019-03-01T18:48:40.565Z,101667.64
2019-03-01T18:51:10.250Z,101663.95
2019-03-01T18:53:39.745Z,101659.63
2019-03-01T18:56:09.033Z,101664.56
2019-03-01T18:58:38.361Z,101672.62
2019-03-01T19:01:10.832Z,101673.70
2019-03-01T19:03:41.220Z,101684.20
2019-03-01T19:06:12.957Z,101686.31
2019-03-01T19:08:42.017Z,101698.52
2019-03-01T19:11:11.302Z,101692.88
2019-03-01T19:13:40.639Z,101704.72
2019-03-01T19:16:09.923Z,101704.77
2019-03-01T19:18:39.226Z,101712.27
2019-03-01T19:21:08.546Z,101707.41
2019-03-01T19:23:37.876Z,101701.37
2019-03-01T19:26:07.197Z,101707.80
2019-03-01T19:28:36.483Z,101704.55
2019-03-01T19:31:05.902Z,101700.46
2019-03-01T19:33:37.866Z,101707.54
2019-03-01T19:36:06.406Z,101705.03
2019-03-01T19:38:35.784Z,101702.88
2019-03-01T19:41:05.092Z,101713.37
2019-03-01T19:43:34.524Z,101709.34
2019-03-01T19:46:03.850Z,101701.28
2019-03-01T19:48:34.477Z,101700.95
2019-03-01T19:51:04.211Z,101694.84
2019-03-01T19:53:33.526Z,101701.13
2019-03-01T19:56:02.797Z,101703.69
2019-03-01T19:58:32.353Z,101705.63
2019-03-01T20:01:01.693Z,101709.19
2019-03-01T20:03:31.027Z,101706.81
2019-03-01T20:06:00.477Z,101713.91
2019-03-01T20:08:30.858Z,101718.51
2019-03-01T20:11:00.182Z,101720.56
2019-03-01T20:13:29.469Z,101715.73
2019-03-01T20:15:58.798Z,101719.83
2019-03-01T20:18:28.181Z,101719.98
2019-03-01T20:20:57.578Z,101712.89
2019-03-01T20:23:29.473Z,101717.63
2019-03-01T20:25:58.165Z,101721.99
2019-03-01T20:28:27.498Z,101718.80
2019-03-01T20:30:56.908Z,101723.73
2019-03-01T20:33:27.783Z,101717.23
2019-03-01T20:35:57.150Z,101724.32
2019-03-01T20:38:26.422Z,101721.81
2019-03-01T20:40:55.918Z,101723.68
2019-03-01T20:43:25.252Z,101719.84
2019-03-01T20:45:54.658Z,101722.73
2019-03-01T20:48:25.629Z,101713.82
2019-03-01T20:50:55.151Z,101713.95
2019-03-01T20:53:24.457Z,101712.94
2019-03-01T20:55:54.002Z,101706.69
2019-03-01T20:58:23.365Z,101703.10
2019-03-01T21:00:52.678Z,101708.11
2019-03-01T21:03:24.935Z,101708.22
2019-03-01T21:05:53.142Z,101706.34
2019-03-01T21:08:22.482Z,101702.37
2019-03-01T21:10:51.807Z,101704.71
2019-03-01T21:13:21.203Z,101706.71
2019-03-01T21:15:50.490Z,101704.98
2019-03-01T21:18:19.881Z,101711.53
2019-03-01T21:20:50.569Z,101707.33
2019-03-01T21:23:20.261Z,101710.16
2019-03-01T21:25:49.881Z,101706.07
2019-03-01T21:28:19.236Z,101714.14
2019-03-01T21:30:48.550Z,101713.78
2019-03-01T21:33:17.871Z,101710.83
2019-03-01T21:35:47.844Z,101712.34
2019-03-01T21:38:18.239Z,101706.94
2019-03-01T21:40:47.719Z,101711.50
2019-03-01T21:43:17.059Z,101715.39
2019-03-01T21:45:46.450Z,101718.13
2019-03-01T21:48:15.828Z,101718.80
2019-03-01T21:50:45.227Z,101714.95
2019-03-01T21:53:14.511Z,101711.73
2019-03-01T21:55:43.944Z,101718.35
2019-03-01T21:58:13.402Z,101718.35
2019-03-01T22:00:42.717Z,101716.52
2019-03-01T22:03:11.985Z,101718.87
2019-03-01T22:05:41.353Z,101721.59
2019-03-01T22:08:12.964Z,101722.30
2019-03-01T22:10:41.872Z,101721.98
2019-03-01T22:13:11.191Z,101721.34
2019-03-01T22:15:40.504Z,101718.70
2019-03-01T22:18:09.917Z,101722.48
2019-03-01T22:20:41.624Z,101717.45
2019-03-01T22:23:15.535Z,101722.55
2019-03-01T22:25:41.501Z,101720.72
2019-03-01T22:28:10.852Z,101724.06
2019-03-01T22:30:40.167Z,101725.41
2019-03-01T22:33:09.622Z,101724.06
2019-03-01T22:35:40.515Z,101722.23
2019-03-01T22:38:10.238Z,101725.79
2019-03-01T22:40:39.548Z,101728.84
2019-03-01T22:43:08.863Z,101726.31
2019-03-01T22:45:38.328Z,101721.83
2019-03-01T22:48:08.461Z,101724.38
2019-03-01T22:50:39.519Z,101724.59
2019-03-01T22:53:08.993Z,101723.27
2019-03-01T22:55:38.296Z,101720.72
2019-03-01T22:58:08.556Z,101718.53
2019-03-01T23:01:09.474Z,101717.49
2019-03-01T23:03:38.932Z,101722.03
2019-03-01T23:06:11.603Z,101727.25
2019-03-01T23:08:39.438Z,101716.45
2019-03-01T23:11:08.783Z,101722.01
2019-03-01T23:13:38.157Z,101718.63
2019-03-01T23:16:08.061Z,101717.94
2019-03-01T23:18:37.560Z,101717.30
2019-03-01T23:21:08.516Z,101712.75
2019-03-01T23:23:37.817Z,101712.09
2019-03-01T23:26:07.095Z,101707.42
2019-03-01T23:28:36.408Z,101708.92
2019-03-01T23:31:05.724Z,101702.88
2019-03-01T23:33:35.062Z,101706.93
2019-03-01T23:36:04.388Z,101703.20
2019-03-01T23:38:33.751Z,101696.14
2019-03-01T23:41:03.083Z,101691.44
2019-03-01T23:43:32.377Z,101696.17
2019-03-01T23:46:01.753Z,101694.63
2019-03-01T23:48:31.038Z,101691.73
2019-03-01T23:51:00.335Z,101689.17
2019-03-01T23:53:30.898Z,101689.38
2019-03-01T23:56:00.915Z,101680.61
2019-03-01T23:58:30.268Z,101683.16
